sensor_id;sensor_type;location;lat;lon;timestamp;temperature;humidity
81935;DHT22;71405;47.674;-2.050;2023-08-06T00:00:16;20.70;62.20
81935;DHT22;71405;47.674;-2.050;2023-08-06T00:02:42;20.60;62.20
81935;DHT22;71405;47.674;-2.050;2023-08-06T00:05:08;20.60;62.20
81935;DHT22;71405;47.674;-2.050;2023-08-06T00:07:33;20.60;62.20
81935;DHT22;71405;47.674;-2.050;2023-08-06T00:09:59;20.60;62.30
81935;DHT22;71405;47.674;-2.050;2023-08-06T00:12:25;20.60;62.30
81935;DHT22;71405;47.674;-2.050;2023-08-06T00:14:52;20.60;62.20
81935;DHT22;71405;47.674;-2.050;2023-08-06T00:17:18;20.60;62.30
81935;DHT22;71405;47.674;-2.050;2023-08-06T00:19:43;20.60;62.20
81935;DHT22;71405;47.674;-2.050;2023-08-06T00:22:09;20.60;62.30
81935;DHT22;71405;47.674;-2.050;2023-08-06T00:24:35;20.60;62.40
81935;DHT22;71405;47.674;-2.050;2023-08-06T00:27:01;20.60;62.40
81935;DHT22;71405;47.674;-2.050;2023-08-06T00:29:27;20.60;62.40
81935;DHT22;71405;47.674;-2.050;2023-08-06T00:31:53;20.60;62.40
81935;DHT22;71405;47.674;-2.050;2023-08-06T00:34:18;20.60;62.40
81935;DHT22;71405;47.674;-2.050;2023-08-06T00:36:44;20.60;62.30
81935;DHT22;71405;47.674;-2.050;2023-08-06T00:39:10;20.60;62.40
81935;DHT22;71405;47.674;-2.050;2023-08-06T00:41:35;20.50;62.40
81935;DHT22;71405;47.674;-2.050;2023-08-06T00:44:01;20.60;62.30
81935;DHT22;71405;47.674;-2.050;2023-08-06T00:46:27;20.60;62.30
81935;DHT22;71405;47.674;-2.050;2023-08-06T00:48:53;20.60;62.40
81935;DHT22;71405;47.674;-2.050;2023-08-06T00:51:19;20.60;62.30
81935;DHT22;71405;47.674;-2.050;2023-08-06T00:53:46;20.60;62.30
81935;DHT22;71405;47.674;-2.050;2023-08-06T00:56:12;20.50;62.30
81935;DHT22;71405;47.674;-2.050;2023-08-06T00:58:39;20.50;62.20
81935;DHT22;71405;47.674;-2.050;2023-08-06T01:01:05;20.50;62.30
81935;DHT22;71405;47.674;-2.050;2023-08-06T01:03:30;20.50;62.40
81935;DHT22;71405;47.674;-2.050;2023-08-06T01:05:56;20.50;62.30
81935;DHT22;71405;47.674;-2.050;2023-08-06T01:15:15;20.50;62.40
81935;DHT22;71405;47.674;-2.050;2023-08-06T01:17:09;20.50;62.40
81935;DHT22;71405;47.674;-2.050;2023-08-06T01:19:35;20.50;62.40
81935;DHT22;71405;47.674;-2.050;2023-08-06T01:22:01;20.50;62.40
81935;DHT22;71405;47.674;-2.050;2023-08-06T01:24:27;20.50;62.30
81935;DHT22;71405;47.674;-2.050;2023-08-06T01:27:06;20.50;62.30
81935;DHT22;71405;47.674;-2.050;2023-08-06T01:29:37;20.50;62.40
81935;DHT22;71405;47.674;-2.050;2023-08-06T01:32:05;20.50;62.30
81935;DHT22;71405;47.674;-2.050;2023-08-06T01:34:34;20.50;62.30
81935;DHT22;71405;47.674;-2.050;2023-08-06T01:37:01;20.50;62.40
81935;DHT22;71405;47.674;-2.050;2023-08-06T01:39:27;20.40;62.40
81935;DHT22;71405;47.674;-2.050;2023-08-06T01:41:52;20.40;62.50
81935;DHT22;71405;47.674;-2.050;2023-08-06T01:44:18;20.50;62.40
81935;DHT22;71405;47.674;-2.050;2023-08-06T01:46:44;20.40;62.50
81935;DHT22;71405;47.674;-2.050;2023-08-06T01:49:10;20.40;62.40
81935;DHT22;71405;47.674;-2.050;2023-08-06T01:51:35;20.40;62.50
81935;DHT22;71405;47.674;-2.050;2023-08-06T01:54:01;20.40;62.40
81935;DHT22;71405;47.674;-2.050;2023-08-06T01:56:27;20.40;62.50
81935;DHT22;71405;47.674;-2.050;2023-08-06T01:58:52;20.40;62.60
81935;DHT22;71405;47.674;-2.050;2023-08-06T02:01:18;20.40;62.50
81935;DHT22;71405;47.674;-2.050;2023-08-06T02:03:43;20.40;62.50
81935;DHT22;71405;47.674;-2.050;2023-08-06T02:06:09;20.40;62.50
81935;DHT22;71405;47.674;-2.050;2023-08-06T02:08:35;20.40;62.80
81935;DHT22;71405;47.674;-2.050;2023-08-06T02:11:00;20.40;62.50
81935;DHT22;71405;47.674;-2.050;2023-08-06T02:13:28;20.40;62.60
81935;DHT22;71405;47.674;-2.050;2023-08-06T02:15:53;20.40;62.60
81935;DHT22;71405;47.674;-2.050;2023-08-06T02:18:19;20.40;62.60
81935;DHT22;71405;47.674;-2.050;2023-08-06T02:20:55;20.40;62.50
81935;DHT22;71405;47.674;-2.050;2023-08-06T02:23:22;20.40;62.40
81935;DHT22;71405;47.674;-2.050;2023-08-06T02:25:47;20.40;62.40
81935;DHT22;71405;47.674;-2.050;2023-08-06T02:28:13;20.40;62.30
81935;DHT22;71405;47.674;-2.050;2023-08-06T02:30:38;20.40;62.40
81935;DHT22;71405;47.674;-2.050;2023-08-06T02:33:04;20.40;62.30
81935;DHT22;71405;47.674;-2.050;2023-08-06T02:35:30;20.40;62.30
81935;DHT22;71405;47.674;-2.050;2023-08-06T02:37:56;20.40;62.40
81935;DHT22;71405;47.674;-2.050;2023-08-06T02:40:21;20.40;62.30
81935;DHT22;71405;47.674;-2.050;2023-08-06T02:42:47;20.40;62.30
81935;DHT22;71405;47.674;-2.050;2023-08-06T02:45:13;20.40;62.40
81935;DHT22;71405;47.674;-2.050;2023-08-06T02:47:38;20.40;62.30
81935;DHT22;71405;47.674;-2.050;2023-08-06T02:50:04;20.40;62.20
81935;DHT22;71405;47.674;-2.050;2023-08-06T02:52:30;20.40;62.40
81935;DHT22;71405;47.674;-2.050;2023-08-06T02:54:56;20.30;62.30
81935;DHT22;71405;47.674;-2.050;2023-08-06T02:57:23;20.30;62.40
81935;DHT22;71405;47.674;-2.050;2023-08-06T02:59:49;20.30;62.50
81935;DHT22;71405;47.674;-2.050;2023-08-06T03:02:14;20.30;62.80
81935;DHT22;71405;47.674;-2.050;2023-08-06T03:04:40;20.30;62.60
81935;DHT22;71405;47.674;-2.050;2023-08-06T03:07:06;20.30;62.80
81935;DHT22;71405;47.674;-2.050;2023-08-06T03:09:31;20.30;62.90
81935;DHT22;71405;47.674;-2.050;2023-08-06T03:11:57;20.30;62.80
81935;DHT22;71405;47.674;-2.050;2023-08-06T03:14:22;20.30;62.80
81935;DHT22;71405;47.674;-2.050;2023-08-06T03:16:48;20.30;63.10
81935;DHT22;71405;47.674;-2.050;2023-08-06T03:19:14;20.30;62.90
81935;DHT22;71405;47.674;-2.050;2023-08-06T03:21:39;20.30;62.90
81935;DHT22;71405;47.674;-2.050;2023-08-06T03:24:05;20.30;63.10
81935;DHT22;71405;47.674;-2.050;2023-08-06T03:26:31;20.30;62.80
81935;DHT22;71405;47.674;-2.050;2023-08-06T03:28:56;20.30;62.90
81935;DHT22;71405;47.674;-2.050;2023-08-06T03:31:22;20.30;62.90
81935;DHT22;71405;47.674;-2.050;2023-08-06T03:33:47;20.30;62.80
81935;DHT22;71405;47.674;-2.050;2023-08-06T03:36:13;20.30;62.70
81935;DHT22;71405;47.674;-2.050;2023-08-06T03:38:39;20.30;62.50
81935;DHT22;71405;47.674;-2.050;2023-08-06T03:41:05;20.30;62.40
81935;DHT22;71405;47.674;-2.050;2023-08-06T03:43:31;20.30;62.40
81935;DHT22;71405;47.674;-2.050;2023-08-06T03:45:56;20.30;62.40
81935;DHT22;71405;47.674;-2.050;2023-08-06T03:48:22;20.30;62.40
81935;DHT22;71405;47.674;-2.050;2023-08-06T03:50:48;20.30;62.60
81935;DHT22;71405;47.674;-2.050;2023-08-06T03:53:13;20.30;62.80
81935;DHT22;71405;47.674;-2.050;2023-08-06T03:55:39;20.20;62.50
81935;DHT22;71405;47.674;-2.050;2023-08-06T03:58:05;20.20;62.60
81935;DHT22;71405;47.674;-2.050;2023-08-06T04:00:30;20.20;62.60
81935;DHT22;71405;47.674;-2.050;2023-08-06T04:02:56;20.20;62.90
81935;DHT22;71405;47.674;-2.050;2023-08-06T04:05:22;20.20;62.70
81935;DHT22;71405;47.674;-2.050;2023-08-06T04:07:47;20.20;62.80
81935;DHT22;71405;47.674;-2.050;2023-08-06T04:10:13;20.20;62.40
81935;DHT22;71405;47.674;-2.050;2023-08-06T04:12:39;20.20;62.40
81935;DHT22;71405;47.674;-2.050;2023-08-06T04:15:05;20.20;62.40
81935;DHT22;71405;47.674;-2.050;2023-08-06T04:17:31;20.20;62.30
81935;DHT22;71405;47.674;-2.050;2023-08-06T04:19:57;20.20;62.30
81935;DHT22;71405;47.674;-2.050;2023-08-06T04:22:25;20.20;62.30
81935;DHT22;71405;47.674;-2.050;2023-08-06T04:24:51;20.20;62.20
81935;DHT22;71405;47.674;-2.050;2023-08-06T04:27:18;20.20;62.30
81935;DHT22;71405;47.674;-2.050;2023-08-06T04:29:44;20.20;62.30
81935;DHT22;71405;47.674;-2.050;2023-08-06T04:32:10;20.20;62.40
81935;DHT22;71405;47.674;-2.050;2023-08-06T04:34:36;20.20;62.60
81935;DHT22;71405;47.674;-2.050;2023-08-06T04:37:03;20.20;62.50
81935;DHT22;71405;47.674;-2.050;2023-08-06T04:39:29;20.20;62.80
81935;DHT22;71405;47.674;-2.050;2023-08-06T04:41:56;20.20;62.80
81935;DHT22;71405;47.674;-2.050;2023-08-06T04:44:23;20.10;62.70
81935;DHT22;71405;47.674;-2.050;2023-08-06T04:46:48;20.10;62.80
81935;DHT22;71405;47.674;-2.050;2023-08-06T04:49:14;20.20;62.70
81935;DHT22;71405;47.674;-2.050;2023-08-06T04:51:40;20.10;62.70
81935;DHT22;71405;47.674;-2.050;2023-08-06T04:54:05;20.10;62.90
81935;DHT22;71405;47.674;-2.050;2023-08-06T04:56:31;20.10;62.70
81935;DHT22;71405;47.674;-2.050;2023-08-06T04:58:58;20.10;62.50
81935;DHT22;71405;47.674;-2.050;2023-08-06T05:01:24;20.10;62.60
81935;DHT22;71405;47.674;-2.050;2023-08-06T05:03:50;20.10;62.70
81935;DHT22;71405;47.674;-2.050;2023-08-06T05:06:15;20.10;62.90
81935;DHT22;71405;47.674;-2.050;2023-08-06T05:08:41;20.10;62.60
81935;DHT22;71405;47.674;-2.050;2023-08-06T05:11:07;20.10;62.50
81935;DHT22;71405;47.674;-2.050;2023-08-06T05:13:32;20.10;62.60
81935;DHT22;71405;47.674;-2.050;2023-08-06T05:15:58;20.10;62.40
81935;DHT22;71405;47.674;-2.050;2023-08-06T05:18:24;20.10;62.30
81935;DHT22;71405;47.674;-2.050;2023-08-06T05:20:49;20.10;62.30
81935;DHT22;71405;47.674;-2.050;2023-08-06T05:23:15;20.10;62.30
81935;DHT22;71405;47.674;-2.050;2023-08-06T05:25:42;20.10;62.30
81935;DHT22;71405;47.674;-2.050;2023-08-06T05:28:07;20.10;62.30
81935;DHT22;71405;47.674;-2.050;2023-08-06T05:30:33;20.10;62.40
81935;DHT22;71405;47.674;-2.050;2023-08-06T05:33:02;20.10;62.50
81935;DHT22;71405;47.674;-2.050;2023-08-06T05:35:28;20.10;62.60
81935;DHT22;71405;47.674;-2.050;2023-08-06T05:37:53;20.10;62.80
81935;DHT22;71405;47.674;-2.050;2023-08-06T05:40:19;20.10;62.60
81935;DHT22;71405;47.674;-2.050;2023-08-06T05:42:45;20.10;62.50
81935;DHT22;71405;47.674;-2.050;2023-08-06T05:45:10;20.10;62.70
81935;DHT22;71405;47.674;-2.050;2023-08-06T05:47:36;20.10;62.40
81935;DHT22;71405;47.674;-2.050;2023-08-06T05:50:02;20.10;62.50
81935;DHT22;71405;47.674;-2.050;2023-08-06T05:52:28;20.10;62.30
81935;DHT22;71405;47.674;-2.050;2023-08-06T05:54:53;20.10;62.30
81935;DHT22;71405;47.674;-2.050;2023-08-06T05:57:20;20.10;62.20
81935;DHT22;71405;47.674;-2.050;2023-08-06T05:59:46;20.10;62.20
81935;DHT22;71405;47.674;-2.050;2023-08-06T06:02:11;20.10;62.10
81935;DHT22;71405;47.674;-2.050;2023-08-06T06:04:37;20.10;62.10
81935;DHT22;71405;47.674;-2.050;2023-08-06T06:07:03;20.10;62.10
81935;DHT22;71405;47.674;-2.050;2023-08-06T06:09:29;20.00;62.10
81935;DHT22;71405;47.674;-2.050;2023-08-06T06:11:55;20.00;62.50
81935;DHT22;71405;47.674;-2.050;2023-08-06T06:14:20;20.10;62.30
81935;DHT22;71405;47.674;-2.050;2023-08-06T06:16:46;20.00;62.40
81935;DHT22;71405;47.674;-2.050;2023-08-06T06:19:12;20.00;62.40
81935;DHT22;71405;47.674;-2.050;2023-08-06T06:21:38;20.00;62.60
81935;DHT22;71405;47.674;-2.050;2023-08-06T06:24:04;20.00;62.60
81935;DHT22;71405;47.674;-2.050;2023-08-06T06:26:31;20.00;62.70
81935;DHT22;71405;47.674;-2.050;2023-08-06T06:28:57;20.00;62.50
81935;DHT22;71405;47.674;-2.050;2023-08-06T06:31:23;20.00;62.20
81935;DHT22;71405;47.674;-2.050;2023-08-06T06:33:48;19.90;62.10
81935;DHT22;71405;47.674;-2.050;2023-08-06T06:36:14;19.90;62.10
81935;DHT22;71405;47.674;-2.050;2023-08-06T06:38:40;19.90;62.10
81935;DHT22;71405;47.674;-2.050;2023-08-06T06:41:05;20.00;62.50
81935;DHT22;71405;47.674;-2.050;2023-08-06T06:43:32;20.00;62.70
81935;DHT22;71405;47.674;-2.050;2023-08-06T06:46:00;20.00;62.70
81935;DHT22;71405;47.674;-2.050;2023-08-06T06:48:31;20.00;62.30
81935;DHT22;71405;47.674;-2.050;2023-08-06T06:50:57;20.00;62.20
81935;DHT22;71405;47.674;-2.050;2023-08-06T06:53:23;20.00;62.70
81935;DHT22;71405;47.674;-2.050;2023-08-06T06:55:53;20.10;62.70
81935;DHT22;71405;47.674;-2.050;2023-08-06T06:58:19;20.00;63.10
81935;DHT22;71405;47.674;-2.050;2023-08-06T07:00:46;20.10;62.80
81935;DHT22;71405;47.674;-2.050;2023-08-06T07:03:12;20.00;62.70
81935;DHT22;71405;47.674;-2.050;2023-08-06T07:05:37;20.10;62.70
81935;DHT22;71405;47.674;-2.050;2023-08-06T07:08:03;20.10;62.70
81935;DHT22;71405;47.674;-2.050;2023-08-06T07:10:29;20.10;62.90
81935;DHT22;71405;47.674;-2.050;2023-08-06T07:12:54;20.10;63.10
81935;DHT22;71405;47.674;-2.050;2023-08-06T07:15:20;20.10;63.00
81935;DHT22;71405;47.674;-2.050;2023-08-06T07:17:46;20.10;63.00
81935;DHT22;71405;47.674;-2.050;2023-08-06T07:20:11;20.10;63.00
81935;DHT22;71405;47.674;-2.050;2023-08-06T07:22:37;20.10;63.00
81935;DHT22;71405;47.674;-2.050;2023-08-06T07:25:03;20.10;62.60
81935;DHT22;71405;47.674;-2.050;2023-08-06T07:27:29;19.90;62.50
81935;DHT22;71405;47.674;-2.050;2023-08-06T07:29:54;19.90;62.50
81935;DHT22;71405;47.674;-2.050;2023-08-06T07:32:20;19.80;62.70
81935;DHT22;71405;47.674;-2.050;2023-08-06T07:34:46;19.70;62.90
81935;DHT22;71405;47.674;-2.050;2023-08-06T07:37:11;19.70;63.00
81935;DHT22;71405;47.674;-2.050;2023-08-06T07:39:37;19.70;63.10
81935;DHT22;71405;47.674;-2.050;2023-08-06T07:42:05;19.70;63.10
81935;DHT22;71405;47.674;-2.050;2023-08-06T07:44:32;19.70;63.00
81935;DHT22;71405;47.674;-2.050;2023-08-06T07:46:58;19.70;63.20
81935;DHT22;71405;47.674;-2.050;2023-08-06T07:49:23;19.70;63.20
81935;DHT22;71405;47.674;-2.050;2023-08-06T07:51:49;19.70;63.30
81935;DHT22;71405;47.674;-2.050;2023-08-06T07:54:17;19.70;63.20
81935;DHT22;71405;47.674;-2.050;2023-08-06T07:56:42;19.60;63.40
81935;DHT22;71405;47.674;-2.050;2023-08-06T07:59:08;19.60;63.50
81935;DHT22;71405;47.674;-2.050;2023-08-06T08:01:34;19.60;63.40
81935;DHT22;71405;47.674;-2.050;2023-08-06T08:04:00;19.60;63.40
81935;DHT22;71405;47.674;-2.050;2023-08-06T08:06:26;19.70;63.40
81935;DHT22;71405;47.674;-2.050;2023-08-06T08:08:52;19.70;63.40
81935;DHT22;71405;47.674;-2.050;2023-08-06T08:11:17;19.70;63.50
81935;DHT22;71405;47.674;-2.050;2023-08-06T08:13:44;19.60;63.50
81935;DHT22;71405;47.674;-2.050;2023-08-06T08:16:10;19.70;63.60
81935;DHT22;71405;47.674;-2.050;2023-08-06T08:18:35;19.60;63.70
81935;DHT22;71405;47.674;-2.050;2023-08-06T08:21:01;19.60;63.70
81935;DHT22;71405;47.674;-2.050;2023-08-06T08:23:27;19.70;63.60
81935;DHT22;71405;47.674;-2.050;2023-08-06T08:25:52;19.80;63.40
81935;DHT22;71405;47.674;-2.050;2023-08-06T08:28:18;19.80;63.60
81935;DHT22;71405;47.674;-2.050;2023-08-06T08:30:44;19.90;63.70
81935;DHT22;71405;47.674;-2.050;2023-08-06T08:33:10;19.90;63.50
81935;DHT22;71405;47.674;-2.050;2023-08-06T08:35:36;19.90;63.30
81935;DHT22;71405;47.674;-2.050;2023-08-06T08:38:02;20.00;63.30
81935;DHT22;71405;47.674;-2.050;2023-08-06T08:40:32;20.00;63.10
81935;DHT22;71405;47.674;-2.050;2023-08-06T08:42:59;20.00;63.20
81935;DHT22;71405;47.674;-2.050;2023-08-06T08:45:28;20.10;63.30
81935;DHT22;71405;47.674;-2.050;2023-08-06T08:47:55;20.10;63.10
81935;DHT22;71405;47.674;-2.050;2023-08-06T08:50:21;20.10;63.10
81935;DHT22;71405;47.674;-2.050;2023-08-06T08:52:47;20.10;63.30
81935;DHT22;71405;47.674;-2.050;2023-08-06T08:55:15;20.10;63.20
81935;DHT22;71405;47.674;-2.050;2023-08-06T08:57:41;20.00;63.20
81935;DHT22;71405;47.674;-2.050;2023-08-06T09:00:07;20.00;63.20
81935;DHT22;71405;47.674;-2.050;2023-08-06T09:02:34;20.00;63.20
81935;DHT22;71405;47.674;-2.050;2023-08-06T09:05:00;20.10;63.30
81935;DHT22;71405;47.674;-2.050;2023-08-06T09:07:35;20.00;63.30
81935;DHT22;71405;47.674;-2.050;2023-08-06T09:10:03;20.00;63.40
81935;DHT22;71405;47.674;-2.050;2023-08-06T09:12:31;20.00;63.50
81935;DHT22;71405;47.674;-2.050;2023-08-06T09:14:57;20.10;63.50
81935;DHT22;71405;47.674;-2.050;2023-08-06T09:17:23;20.10;63.40
81935;DHT22;71405;47.674;-2.050;2023-08-06T09:19:49;20.10;63.40
81935;DHT22;71405;47.674;-2.050;2023-08-06T09:22:15;20.10;63.30
81935;DHT22;71405;47.674;-2.050;2023-08-06T09:24:41;20.10;63.40
81935;DHT22;71405;47.674;-2.050;2023-08-06T09:27:16;20.20;63.10
81935;DHT22;71405;47.674;-2.050;2023-08-06T09:29:43;20.10;63.00
81935;DHT22;71405;47.674;-2.050;2023-08-06T09:32:09;20.10;63.00
81935;DHT22;71405;47.674;-2.050;2023-08-06T09:34:34;20.10;63.00
81935;DHT22;71405;47.674;-2.050;2023-08-06T09:37:00;20.10;62.90
81935;DHT22;71405;47.674;-2.050;2023-08-06T09:39:30;20.10;63.00
81935;DHT22;71405;47.674;-2.050;2023-08-06T09:41:58;20.10;62.90
81935;DHT22;71405;47.674;-2.050;2023-08-06T09:44:25;20.10;62.70
81935;DHT22;71405;47.674;-2.050;2023-08-06T09:46:53;20.10;62.80
81935;DHT22;71405;47.674;-2.050;2023-08-06T09:49:24;20.10;62.60
81935;DHT22;71405;47.674;-2.050;2023-08-06T09:51:51;20.10;62.50
81935;DHT22;71405;47.674;-2.050;2023-08-06T09:54:17;20.10;62.80
81935;DHT22;71405;47.674;-2.050;2023-08-06T09:56:46;20.10;62.60
81935;DHT22;71405;47.674;-2.050;2023-08-06T09:59:12;20.10;62.60
81935;DHT22;71405;47.674;-2.050;2023-08-06T10:01:38;20.10;62.40
81935;DHT22;71405;47.674;-2.050;2023-08-06T10:04:05;20.10;62.40
81935;DHT22;71405;47.674;-2.050;2023-08-06T10:06:34;20.20;62.50
81935;DHT22;71405;47.674;-2.050;2023-08-06T10:09:01;20.20;62.70
81935;DHT22;71405;47.674;-2.050;2023-08-06T10:11:29;20.20;62.60
81935;DHT22;71405;47.674;-2.050;2023-08-06T10:14:08;20.10;62.30
81935;DHT22;71405;47.674;-2.050;2023-08-06T10:16:36;20.10;62.30
81935;DHT22;71405;47.674;-2.050;2023-08-06T10:19:04;20.20;62.50
81935;DHT22;71405;47.674;-2.050;2023-08-06T10:21:33;20.20;62.60
81935;DHT22;71405;47.674;-2.050;2023-08-06T10:23:59;20.20;62.70
81935;DHT22;71405;47.674;-2.050;2023-08-06T10:26:27;20.20;62.50
81935;DHT22;71405;47.674;-2.050;2023-08-06T10:28:53;20.30;62.70
81935;DHT22;71405;47.674;-2.050;2023-08-06T10:31:19;20.20;62.20
81935;DHT22;71405;47.674;-2.050;2023-08-06T10:33:46;20.30;62.50
81935;DHT22;71405;47.674;-2.050;2023-08-06T10:36:14;20.30;62.70
81935;DHT22;71405;47.674;-2.050;2023-08-06T10:38:47;20.30;62.70
81935;DHT22;71405;47.674;-2.050;2023-08-06T10:41:27;20.30;62.50
81935;DHT22;71405;47.674;-2.050;2023-08-06T10:44:05;20.30;62.00
81935;DHT22;71405;47.674;-2.050;2023-08-06T10:46:32;20.30;62.20
81935;DHT22;71405;47.674;-2.050;2023-08-06T10:48:58;20.20;61.90
81935;DHT22;71405;47.674;-2.050;2023-08-06T10:51:25;20.30;61.70
81935;DHT22;71405;47.674;-2.050;2023-08-06T10:53:51;20.30;61.80
81935;DHT22;71405;47.674;-2.050;2023-08-06T10:56:21;20.30;61.80
81935;DHT22;71405;47.674;-2.050;2023-08-06T10:58:49;20.40;62.00
81935;DHT22;71405;47.674;-2.050;2023-08-06T11:01:16;20.40;62.10
81935;DHT22;71405;47.674;-2.050;2023-08-06T11:03:43;20.50;62.20
81935;DHT22;71405;47.674;-2.050;2023-08-06T11:06:09;20.50;62.20
81935;DHT22;71405;47.674;-2.050;2023-08-06T11:08:40;20.50;62.10
81935;DHT22;71405;47.674;-2.050;2023-08-06T11:11:13;20.40;62.50
81935;DHT22;71405;47.674;-2.050;2023-08-06T11:13:40;20.40;62.30
81935;DHT22;71405;47.674;-2.050;2023-08-06T11:16:06;20.40;61.80
81935;DHT22;71405;47.674;-2.050;2023-08-06T11:18:35;20.50;61.40
81935;DHT22;71405;47.674;-2.050;2023-08-06T11:21:01;20.50;61.70
81935;DHT22;71405;47.674;-2.050;2023-08-06T11:23:28;20.50;61.90
81935;DHT22;71405;47.674;-2.050;2023-08-06T11:25:55;20.60;62.00
81935;DHT22;71405;47.674;-2.050;2023-08-06T11:28:21;20.60;61.80
81935;DHT22;71405;47.674;-2.050;2023-08-06T11:30:50;20.50;62.00
81935;DHT22;71405;47.674;-2.050;2023-08-06T11:33:25;20.50;61.90
81935;DHT22;71405;47.674;-2.050;2023-08-06T11:35:51;20.50;61.80
81935;DHT22;71405;47.674;-2.050;2023-08-06T11:38:17;20.40;61.70
81935;DHT22;71405;47.674;-2.050;2023-08-06T11:40:47;20.50;61.70
81935;DHT22;71405;47.674;-2.050;2023-08-06T11:43:13;20.40;61.50
81935;DHT22;71405;47.674;-2.050;2023-08-06T11:45:40;20.40;61.30
81935;DHT22;71405;47.674;-2.050;2023-08-06T11:48:07;20.50;61.60
81935;DHT22;71405;47.674;-2.050;2023-08-06T11:50:37;20.40;61.60
81935;DHT22;71405;47.674;-2.050;2023-08-06T11:53:04;20.50;61.70
81935;DHT22;71405;47.674;-2.050;2023-08-06T11:55:30;20.60;61.50
81935;DHT22;71405;47.674;-2.050;2023-08-06T11:57:57;20.70;61.30
81935;DHT22;71405;47.674;-2.050;2023-08-06T12:00:24;20.70;61.20
81935;DHT22;71405;47.674;-2.050;2023-08-06T12:02:51;20.80;61.50
81935;DHT22;71405;47.674;-2.050;2023-08-06T12:05:22;20.90;61.20
81935;DHT22;71405;47.674;-2.050;2023-08-06T12:07:56;20.90;60.70
81935;DHT22;71405;47.674;-2.050;2023-08-06T12:10:23;20.90;60.70
81935;DHT22;71405;47.674;-2.050;2023-08-06T12:12:49;20.90;61.10
81935;DHT22;71405;47.674;-2.050;2023-08-06T12:15:15;20.90;61.10
81935;DHT22;71405;47.674;-2.050;2023-08-06T12:17:41;20.90;61.10
81935;DHT22;71405;47.674;-2.050;2023-08-06T12:20:08;21.00;60.90
81935;DHT22;71405;47.674;-2.050;2023-08-06T12:22:35;21.00;61.00
81935;DHT22;71405;47.674;-2.050;2023-08-06T12:25:11;21.00;60.80
81935;DHT22;71405;47.674;-2.050;2023-08-06T12:27:44;21.00;60.80
81935;DHT22;71405;47.674;-2.050;2023-08-06T12:30:10;21.00;60.70
81935;DHT22;71405;47.674;-2.050;2023-08-06T12:32:37;21.00;60.70
81935;DHT22;71405;47.674;-2.050;2023-08-06T12:35:03;21.10;60.30
81935;DHT22;71405;47.674;-2.050;2023-08-06T12:37:30;21.20;60.50
81935;DHT22;71405;47.674;-2.050;2023-08-06T12:39:56;21.10;60.10
81935;DHT22;71405;47.674;-2.050;2023-08-06T12:42:22;21.10;60.20
81935;DHT22;71405;47.674;-2.050;2023-08-06T12:44:48;21.10;59.90
81935;DHT22;71405;47.674;-2.050;2023-08-06T12:47:15;21.10;59.80
81935;DHT22;71405;47.674;-2.050;2023-08-06T12:49:41;21.10;59.70
81935;DHT22;71405;47.674;-2.050;2023-08-06T12:52:07;21.00;60.10
81935;DHT22;71405;47.674;-2.050;2023-08-06T12:54:34;21.00;59.90
81935;DHT22;71405;47.674;-2.050;2023-08-06T12:57:02;21.00;59.80
81935;DHT22;71405;47.674;-2.050;2023-08-06T12:59:28;21.00;60.00
81935;DHT22;71405;47.674;-2.050;2023-08-06T13:01:54;21.00;60.40
81935;DHT22;71405;47.674;-2.050;2023-08-06T13:04:20;20.90;60.60
81935;DHT22;71405;47.674;-2.050;2023-08-06T13:06:46;21.00;60.40
81935;DHT22;71405;47.674;-2.050;2023-08-06T13:09:12;21.10;61.10
81935;DHT22;71405;47.674;-2.050;2023-08-06T13:11:39;21.20;60.60
81935;DHT22;71405;47.674;-2.050;2023-08-06T13:14:07;21.30;60.40
81935;DHT22;71405;47.674;-2.050;2023-08-06T13:16:34;21.30;60.80
81935;DHT22;71405;47.674;-2.050;2023-08-06T13:19:00;21.30;61.20
81935;DHT22;71405;47.674;-2.050;2023-08-06T13:22:17;21.30;60.80
81935;DHT22;71405;47.674;-2.050;2023-08-06T13:24:19;21.20;60.20
81935;DHT22;71405;47.674;-2.050;2023-08-06T13:26:44;21.20;60.50
81935;DHT22;71405;47.674;-2.050;2023-08-06T13:29:10;21.20;60.10
81935;DHT22;71405;47.674;-2.050;2023-08-06T13:31:37;21.20;59.90
81935;DHT22;71405;47.674;-2.050;2023-08-06T13:34:02;21.20;59.70
81935;DHT22;71405;47.674;-2.050;2023-08-06T13:36:28;21.30;59.70
81935;DHT22;71405;47.674;-2.050;2023-08-06T13:38:54;21.40;59.70
81935;DHT22;71405;47.674;-2.050;2023-08-06T13:41:20;21.50;59.10
81935;DHT22;71405;47.674;-2.050;2023-08-06T13:43:46;21.50;59.20
81935;DHT22;71405;47.674;-2.050;2023-08-06T13:46:12;21.60;59.30
81935;DHT22;71405;47.674;-2.050;2023-08-06T13:48:45;21.70;59.20
81935;DHT22;71405;47.674;-2.050;2023-08-06T13:51:11;21.70;59.10
81935;DHT22;71405;47.674;-2.050;2023-08-06T13:53:38;21.80;59.10
81935;DHT22;71405;47.674;-2.050;2023-08-06T13:56:05;21.90;59.10
81935;DHT22;71405;47.674;-2.050;2023-08-06T13:58:33;21.90;59.10
81935;DHT22;71405;47.674;-2.050;2023-08-06T14:00:59;21.90;59.40
81935;DHT22;71405;47.674;-2.050;2023-08-06T14:03:24;21.80;59.40
81935;DHT22;71405;47.674;-2.050;2023-08-06T14:05:50;21.80;59.10
81935;DHT22;71405;47.674;-2.050;2023-08-06T14:08:16;21.70;59.00
81935;DHT22;71405;47.674;-2.050;2023-08-06T14:10:45;21.70;59.00
81935;DHT22;71405;47.674;-2.050;2023-08-06T14:13:11;21.70;58.70
81935;DHT22;71405;47.674;-2.050;2023-08-06T14:15:38;21.60;58.60
81935;DHT22;71405;47.674;-2.050;2023-08-06T14:18:07;21.60;58.50
81935;DHT22;71405;47.674;-2.050;2023-08-06T14:20:36;21.60;58.50
81935;DHT22;71405;47.674;-2.050;2023-08-06T14:23:02;21.60;58.30
81935;DHT22;71405;47.674;-2.050;2023-08-06T14:25:28;21.60;58.40
81935;DHT22;71405;47.674;-2.050;2023-08-06T14:27:53;21.50;58.40
81935;DHT22;71405;47.674;-2.050;2023-08-06T14:30:19;21.50;58.80
81935;DHT22;71405;47.674;-2.050;2023-08-06T14:32:45;21.50;58.80
81935;DHT22;71405;47.674;-2.050;2023-08-06T14:35:11;21.60;59.00
81935;DHT22;71405;47.674;-2.050;2023-08-06T14:37:36;21.70;58.50
81935;DHT22;71405;47.674;-2.050;2023-08-06T14:40:02;21.70;58.80
81935;DHT22;71405;47.674;-2.050;2023-08-06T14:42:28;21.70;59.10
81935;DHT22;71405;47.674;-2.050;2023-08-06T14:44:54;21.70;59.30
81935;DHT22;71405;47.674;-2.050;2023-08-06T14:47:20;21.60;59.20
81935;DHT22;71405;47.674;-2.050;2023-08-06T14:49:45;21.60;58.90
81935;DHT22;71405;47.674;-2.050;2023-08-06T14:52:11;21.60;58.60
81935;DHT22;71405;47.674;-2.050;2023-08-06T14:54:37;21.60;58.60
81935;DHT22;71405;47.674;-2.050;2023-08-06T14:57:02;21.60;58.30
81935;DHT22;71405;47.674;-2.050;2023-08-06T14:59:28;21.60;58.30
81935;DHT22;71405;47.674;-2.050;2023-08-06T15:01:54;21.50;58.10
81935;DHT22;71405;47.674;-2.050;2023-08-06T15:04:20;21.50;58.50
81935;DHT22;71405;47.674;-2.050;2023-08-06T15:06:45;21.50;57.90
81935;DHT22;71405;47.674;-2.050;2023-08-06T15:09:11;21.60;58.10
81935;DHT22;71405;47.674;-2.050;2023-08-06T15:11:37;21.70;57.80
81935;DHT22;71405;47.674;-2.050;2023-08-06T15:14:03;21.90;58.00
81935;DHT22;71405;47.674;-2.050;2023-08-06T15:16:30;22.00;57.80